sensor_id;sensor_type;location;lat;lon;timestamp;pressure;altitude;pressure_sealevel;temperature;humidity
60437;BME280;46289;51.992;4.498;2023-07-20T00:00:35;101629.00;;;15.87;98.81
60437;BME280;46289;51.992;4.498;2023-07-20T00:03:10;101636.72;;;15.91;98.90
60437;BME280;46289;51.992;4.498;2023-07-20T00:05:19;101633.38;;;15.88;99.33
60437;BME280;46289;51.992;4.498;2023-07-20T00:07:29;101626.44;;;15.85;99.06
60437;BME280;46289;51.992;4.498;2023-07-20T00:09:34;101625.97;;;15.94;98.19
60437;BME280;46289;51.992;4.498;2023-07-20T00:11:39;101622.78;;;16.05;99.26
60437;BME280;46289;51.992;4.498;2023-07-20T00:13:45;101626.84;;;16.12;98.81
60437;BME280;46289;51.992;4.498;2023-07-20T00:15:50;101633.06;;;16.11;97.99
60437;BME280;46289;51.992;4.498;2023-07-20T00:17:55;101630.41;;;16.11;97.78
60437;BME280;46289;51.992;4.498;2023-07-20T00:20:00;101629.94;;;16.03;97.42
60437;BME280;46289;51.992;4.498;2023-07-20T00:22:07;101632.97;;;15.95;96.82
60437;BME280;46289;51.992;4.498;2023-07-20T00:24:15;101627.75;;;15.94;97.19
60437;BME280;46289;51.992;4.498;2023-07-20T00:26:20;101637.19;;;15.99;97.73
60437;BME280;46289;51.992;4.498;2023-07-20T00:28:26;101644.69;;;15.91;97.72
60437;BME280;46289;51.992;4.498;2023-07-20T00:30:29;101640.06;;;15.95;97.54
60437;BME280;46289;51.992;4.498;2023-07-20T00:32:34;101641.94;;;15.93;97.98
60437;BME280;46289;51.992;4.498;2023-07-20T00:34:39;101645.06;;;15.84;97.89
60437;BME280;46289;51.992;4.498;2023-07-20T00:36:43;101639.13;;;15.78;97.80
60437;BME280;46289;51.992;4.498;2023-07-20T00:38:48;101628.00;;;15.72;98.01
60437;BME280;46289;51.992;4.498;2023-07-20T00:40:55;101638.66;;;15.70;98.36
60437;BME280;46289;51.992;4.498;2023-07-20T00:43:00;101631.19;;;15.59;98.65
60437;BME280;46289;51.992;4.498;2023-07-20T00:45:06;101630.19;;;15.62;97.94
60437;BME280;46289;51.992;4.498;2023-07-20T00:47:12;101630.41;;;15.57;98.20
60437;BME280;46289;51.992;4.498;2023-07-20T00:49:17;101635.00;;;15.54;98.84
60437;BME280;46289;51.992;4.498;2023-07-20T00:51:24;101629.63;;;15.55;98.46
60437;BME280;46289;51.992;4.498;2023-07-20T00:53:30;101622.34;;;15.42;98.79
60437;BME280;46289;51.992;4.498;2023-07-20T00:55:38;101631.34;;;15.37;99.38
60437;BME280;46289;51.992;4.498;2023-07-20T00:57:47;101630.34;;;15.40;99.17
60437;BME280;46289;51.992;4.498;2023-07-20T00:59:52;101633.59;;;15.28;99.38
60437;BME280;46289;51.992;4.498;2023-07-20T01:02:00;101628.59;;;15.22;99.45
60437;BME280;46289;51.992;4.498;2023-07-20T01:04:06;101627.88;;;15.18;99.79
60437;BME280;46289;51.992;4.498;2023-07-20T01:06:20;101629.69;;;15.18;98.95
60437;BME280;46289;51.992;4.498;2023-07-20T01:08:37;101639.63;;;15.12;98.77
60437;BME280;46289;51.992;4.498;2023-07-20T01:10:48;101635.63;;;15.04;99.22
60437;BME280;46289;51.992;4.498;2023-07-20T01:13:01;101635.69;;;15.02;99.09
60437;BME280;46289;51.992;4.498;2023-07-20T01:15:07;101642.97;;;14.97;99.54
60437;BME280;46289;51.992;4.498;2023-07-20T01:17:13;101631.47;;;14.98;99.22
60437;BME280;46289;51.992;4.498;2023-07-20T01:19:18;101632.34;;;14.99;100.00
60437;BME280;46289;51.992;4.498;2023-07-20T01:21:28;101637.78;;;14.96;100.00
60437;BME280;46289;51.992;4.498;2023-07-20T01:24:01;101630.59;;;14.98;100.00
60437;BME280;46289;51.992;4.498;2023-07-20T01:26:27;101635.75;;;15.01;99.54
60437;BME280;46289;51.992;4.498;2023-07-20T01:29:06;101642.53;;;14.87;99.78
60437;BME280;46289;51.992;4.498;2023-07-20T01:31:24;101643.75;;;14.80;99.34
60437;BME280;46289;51.992;4.498;2023-07-20T01:33:32;101646.59;;;14.76;99.78
60437;BME280;46289;51.992;4.498;2023-07-20T01:35:36;101645.91;;;14.72;99.75
60437;BME280;46289;51.992;4.498;2023-07-20T01:37:44;101649.03;;;14.61;100.00
60437;BME280;46289;51.992;4.498;2023-07-20T01:39:52;101647.44;;;14.57;100.00
60437;BME280;46289;51.992;4.498;2023-07-20T01:42:02;101647.56;;;14.54;100.00
60437;BME280;46289;51.992;4.498;2023-07-20T01:44:08;101649.44;;;14.50;100.00
60437;BME280;46289;51.992;4.498;2023-07-20T01:46:14;101655.59;;;14.51;100.00
60437;BME280;46289;51.992;4.498;2023-07-20T01:48:22;101654.94;;;14.46;100.00
60437;BME280;46289;51.992;4.498;2023-07-20T01:50:29;101654.28;;;14.41;100.00
60437;BME280;46289;51.992;4.498;2023-07-20T01:52:39;101657.66;;;14.44;100.00
60437;BME280;46289;51.992;4.498;2023-07-20T01:54:45;101657.13;;;14.36;100.00
60437;BME280;46289;51.992;4.498;2023-07-20T01:56:50;101655.41;;;14.35;100.00
60437;BME280;46289;51.992;4.498;2023-07-20T01:58:55;101654.34;;;14.39;100.00
60437;BME280;46289;51.992;4.498;2023-07-20T02:01:00;101649.81;;;14.43;100.00
60437;BME280;46289;51.992;4.498;2023-07-20T02:03:07;101656.78;;;14.44;100.00
60437;BME280;46289;51.992;4.498;2023-07-20T02:05:17;101651.66;;;14.41;100.00
60437;BME280;46289;51.992;4.498;2023-07-20T02:07:22;101657.94;;;14.38;100.00
60437;BME280;46289;51.992;4.498;2023-07-20T02:09:27;101657.13;;;14.36;100.00
60437;BME280;46289;51.992;4.498;2023-07-20T02:11:37;101657.00;;;14.39;100.00
60437;BME280;46289;51.992;4.498;2023-07-20T02:13:42;101650.00;;;14.38;100.00
60437;BME280;46289;51.992;4.498;2023-07-20T02:15:48;101645.69;;;14.36;100.00
60437;BME280;46289;51.992;4.498;2023-07-20T02:17:53;101649.91;;;14.40;100.00
60437;BME280;46289;51.992;4.498;2023-07-20T02:19:58;101652.44;;;14.43;100.00
60437;BME280;46289;51.992;4.498;2023-07-20T02:22:06;101657.94;;;14.38;100.00
60437;BME280;46289;51.992;4.498;2023-07-20T02:24:12;101660.38;;;14.43;100.00
60437;BME280;46289;51.992;4.498;2023-07-20T02:26:18;101654.16;;;14.44;100.00
60437;BME280;46289;51.992;4.498;2023-07-20T02:28:23;101649.66;;;14.46;100.00
60437;BME280;46289;51.992;4.498;2023-07-20T02:30:28;101653.31;;;14.43;100.00
60437;BME280;46289;51.992;4.498;2023-07-20T02:32:33;101650.00;;;14.38;100.00
60437;BME280;46289;51.992;4.498;2023-07-20T02:34:40;101650.91;;;14.37;100.00
60437;BME280;46289;51.992;4.498;2023-07-20T02:36:45;101651.84;;;14.36;100.00
60437;BME280;46289;51.992;4.498;2023-07-20T02:38:53;101651.97;;;14.33;100.00
60437;BME280;46289;51.992;4.498;2023-07-20T02:40:58;101652.88;;;14.32;100.00
60437;BME280;46289;51.992;4.498;2023-07-20T02:43:04;101654.75;;;14.30;100.00
60437;BME280;46289;51.992;4.498;2023-07-20T02:45:10;101660.91;;;14.31;100.00
60437;BME280;46289;51.992;4.498;2023-07-20T02:47:14;101656.66;;;14.26;100.00
60437;BME280;46289;51.992;4.498;2023-07-20T02:49:19;101663.72;;;14.26;100.00
60437;BME280;46289;51.992;4.498;2023-07-20T02:51:24;101661.88;;;14.28;100.00
60437;BME280;46289;51.992;4.498;2023-07-20T02:53:29;101663.00;;;14.22;100.00
60437;BME280;46289;51.992;4.498;2023-07-20T02:55:37;101668.34;;;14.21;100.00
60437;BME280;46289;51.992;4.498;2023-07-20T02:57:43;101668.50;;;14.18;100.00
60437;BME280;46289;51.992;4.498;2023-07-20T02:59:48;101676.41;;;14.18;100.00
60437;BME280;46289;51.992;4.498;2023-07-20T03:01:53;101682.50;;;14.20;100.00
60437;BME280;46289;51.992;4.498;2023-07-20T03:04:02;101675.44;;;14.20;100.00
60437;BME280;46289;51.992;4.498;2023-07-20T03:06:12;101678.03;;;14.22;100.00
60437;BME280;46289;51.992;4.498;2023-07-20T03:08:17;101677.34;;;14.17;100.00
60437;BME280;46289;51.992;4.498;2023-07-20T03:10:22;101678.13;;;14.19;100.00
60437;BME280;46289;51.992;4.498;2023-07-20T03:12:31;101680.66;;;14.22;100.00
60437;BME280;46289;51.992;4.498;2023-07-20T03:14:36;101683.53;;;14.16;100.00
60437;BME280;46289;51.992;4.498;2023-07-20T03:16:43;101684.41;;;14.16;100.00
60437;BME280;46289;51.992;4.498;2023-07-20T03:18:48;101684.63;;;14.12;100.00
60437;BME280;46289;51.992;4.498;2023-07-20T03:20:53;101693.41;;;14.12;100.00
60437;BME280;46289;51.992;4.498;2023-07-20T03:22:56;101685.53;;;14.11;100.00
60437;BME280;46289;51.992;4.498;2023-07-20T03:25:01;101686.50;;;14.08;100.00
60437;BME280;46289;51.992;4.498;2023-07-20T03:27:06;101687.56;;;14.04;100.00
60437;BME280;46289;51.992;4.498;2023-07-20T03:29:15;101686.06;;;13.98;100.00
60437;BME280;46289;51.992;4.498;2023-07-20T03:31:20;101689.59;;;13.97;100.00
60437;BME280;46289;51.992;4.498;2023-07-20T03:33:27;101694.34;;;13.89;100.00
60437;BME280;46289;51.992;4.498;2023-07-20T03:35:33;101691.28;;;13.78;100.00
60437;BME280;46289;51.992;4.498;2023-07-20T03:37:38;101693.16;;;13.74;100.00
60437;BME280;46289;51.992;4.498;2023-07-20T03:39:44;101686.25;;;13.72;100.00
60437;BME280;46289;51.992;4.498;2023-07-20T03:41:49;101692.44;;;13.71;100.00
60437;BME280;46289;51.992;4.498;2023-07-20T03:43:54;101688.22;;;13.67;100.00
60437;BME280;46289;51.992;4.498;2023-07-20T03:46:02;101686.56;;;13.64;100.00
60437;BME280;46289;51.992;4.498;2023-07-20T03:48:09;101692.69;;;13.65;100.00
60437;BME280;46289;51.992;4.498;2023-07-20T03:50:14;101690.94;;;13.64;100.00
60437;BME280;46289;51.992;4.498;2023-07-20T03:52:19;101693.50;;;13.67;100.00
60437;BME280;46289;51.992;4.498;2023-07-20T03:54:25;101687.16;;;13.71;100.00
60437;BME280;46289;51.992;4.498;2023-07-20T03:56:30;101689.75;;;13.72;100.00
60437;BME280;46289;51.992;4.498;2023-07-20T03:58:37;101683.63;;;13.72;100.00
60437;BME280;46289;51.992;4.498;2023-07-20T04:00:46;101687.03;;;13.74;100.00
60437;BME280;46289;51.992;4.498;2023-07-20T04:02:54;101698.44;;;13.74;100.00
60437;BME280;46289;51.992;4.498;2023-07-20T04:05:02;101694.94;;;13.74;100.00
60437;BME280;46289;51.992;4.498;2023-07-20T04:07:10;101701.00;;;13.77;100.00
60437;BME280;46289;51.992;4.498;2023-07-20T04:09:17;101699.22;;;13.78;100.00
60437;BME280;46289;51.992;4.498;2023-07-20T04:11:22;101698.28;;;13.79;100.00
60437;BME280;46289;51.992;4.498;2023-07-20T04:13:27;101697.38;;;13.80;100.00
60437;BME280;46289;51.992;4.498;2023-07-20T04:15:35;101698.16;;;13.82;100.00
60437;BME280;46289;51.992;4.498;2023-07-20T04:17:40;101693.78;;;13.81;100.00
60437;BME280;46289;51.992;4.498;2023-07-20T04:19:49;101691.88;;;13.84;100.00
60437;BME280;46289;51.992;4.498;2023-07-20T04:21:54;101695.41;;;13.85;100.00
60437;BME280;46289;51.992;4.498;2023-07-20T04:24:00;101698.16;;;13.82;100.00
60437;BME280;46289;51.992;4.498;2023-07-20T04:26:07;101693.63;;;13.86;100.00
60437;BME280;46289;51.992;4.498;2023-07-20T04:28:14;101696.06;;;13.90;100.00
60437;BME280;46289;51.992;4.498;2023-07-20T04:30:19;101700.31;;;13.94;100.00
60437;BME280;46289;51.992;4.498;2023-07-20T04:32:25;101688.78;;;13.95;100.00
60437;BME280;46289;51.992;4.498;2023-07-20T04:34:28;101700.31;;;13.94;100.00
60437;BME280;46289;51.992;4.498;2023-07-20T04:36:36;101697.59;;;13.96;100.00
60437;BME280;46289;51.992;4.498;2023-07-20T04:38:42;101699.19;;;14.00;100.00
60437;BME280;46289;51.992;4.498;2023-07-20T04:40:48;101698.06;;;14.05;100.00
60437;BME280;46289;51.992;4.498;2023-07-20T04:42:53;101702.06;;;14.16;100.00
60437;BME280;46289;51.992;4.498;2023-07-20T04:44:58;101698.19;;;14.24;100.00
60437;BME280;46289;51.992;4.498;2023-07-20T04:47:04;101700.47;;;14.32;100.00
60437;BME280;46289;51.992;4.498;2023-07-20T04:49:10;101707.22;;;14.39;100.00
60437;BME280;46289;51.992;4.498;2023-07-20T04:51:17;101705.38;;;14.41;100.00
60437;BME280;46289;51.992;4.498;2023-07-20T04:53:25;101706.72;;;14.52;100.00
60437;BME280;46289;51.992;4.498;2023-07-20T04:55:30;101698.78;;;14.52;100.00
60437;BME280;46289;51.992;4.498;2023-07-20T04:57:36;101704.69;;;14.58;100.00
60437;BME280;46289;51.992;4.498;2023-07-20T04:59:44;101701.19;;;14.58;100.00
60437;BME280;46289;51.992;4.498;2023-07-20T05:01:49;101711.03;;;14.54;100.00
60437;BME280;46289;51.992;4.498;2023-07-20T05:03:54;101711.94;;;14.53;100.00
60437;BME280;46289;51.992;4.498;2023-07-20T05:06:00;101711.09;;;14.53;100.00
60437;BME280;46289;51.992;4.498;2023-07-20T05:08:05;101706.34;;;14.61;100.00
60437;BME280;46289;51.992;4.498;2023-07-20T05:10:13;101710.31;;;14.71;100.00
60437;BME280;46289;51.992;4.498;2023-07-20T05:12:18;101705.75;;;14.75;100.00
60437;BME280;46289;51.992;4.498;2023-07-20T05:14:23;101708.84;;;14.84;100.00
60437;BME280;46289;51.992;4.498;2023-07-20T05:16:28;101708.69;;;14.87;100.00
60437;BME280;46289;51.992;4.498;2023-07-20T05:18:33;101704.94;;;14.93;100.00
60437;BME280;46289;51.992;4.498;2023-07-20T05:20:36;101719.81;;;14.96;100.00
60437;BME280;46289;51.992;4.498;2023-07-20T05:22:44;101712.38;;;15.04;100.00
60437;BME280;46289;51.992;4.498;2023-07-20T05:24:46;101717.53;;;15.07;100.00
60437;BME280;46289;51.992;4.498;2023-07-20T05:26:54;101716.44;;;15.11;100.00
60437;BME280;46289;51.992;4.498;2023-07-20T05:29:02;101717.41;;;15.10;100.00
60437;BME280;46289;51.992;4.498;2023-07-20T05:31:07;101716.34;;;15.14;100.00
60437;BME280;46289;51.992;4.498;2023-07-20T05:33:12;101715.59;;;15.10;100.00
60437;BME280;46289;51.992;4.498;2023-07-20T05:35:18;101719.69;;;15.18;100.00
60437;BME280;46289;51.992;4.498;2023-07-20T05:37:23;101715.69;;;15.28;100.00
60437;BME280;46289;51.992;4.498;2023-07-20T05:39:29;101713.69;;;15.33;100.00
60437;BME280;46289;51.992;4.498;2023-07-20T05:41:39;101709.69;;;15.43;100.00
60437;BME280;46289;51.992;4.498;2023-07-20T05:43:48;101711.34;;;15.46;100.00
60437;BME280;46289;51.992;4.498;2023-07-20T05:45:51;101705.28;;;15.61;100.00
60437;BME280;46289;51.992;4.498;2023-07-20T05:47:56;101700.44;;;16.42;99.27
60437;BME280;46289;51.992;4.498;2023-07-20T05:50:01;101695.91;;;16.79;95.90
60437;BME280;46289;51.992;4.498;2023-07-20T05:52:08;101695.81;;;17.14;94.92
60437;BME280;46289;51.992;4.498;2023-07-20T05:54:11;101696.53;;;17.33;92.87
60437;BME280;46289;51.992;4.498;2023-07-20T05:56:16;101695.59;;;17.34;90.62
60437;BME280;46289;51.992;4.498;2023-07-20T05:58:22;101706.13;;;17.67;90.34
60437;BME280;46289;51.992;4.498;2023-07-20T06:00:30;101705.03;;;17.87;90.01
60437;BME280;46289;51.992;4.498;2023-07-20T06:02:35;101705.72;;;18.21;89.01
60437;BME280;46289;51.992;4.498;2023-07-20T06:04:41;101699.13;;;18.42;87.23
60437;BME280;46289;51.992;4.498;2023-07-20T06:06:47;101705.25;;;18.59;85.14
60437;BME280;46289;51.992;4.498;2023-07-20T06:08:52;101708.06;;;18.41;85.41
60437;BME280;46289;51.992;4.498;2023-07-20T06:10:58;101713.53;;;18.69;84.16
60437;BME280;46289;51.992;4.498;2023-07-20T06:13:03;101710.25;;;18.79;81.41
60437;BME280;46289;51.992;4.498;2023-07-20T06:15:25;101715.41;;;18.97;80.93
60437;BME280;46289;51.992;4.498;2023-07-20T06:17:33;101718.81;;;19.13;78.65
60437;BME280;46289;51.992;4.498;2023-07-20T06:19:42;101709.66;;;19.32;77.66
60437;BME280;46289;51.992;4.498;2023-07-20T06:21:50;101708.03;;;19.43;76.57
60437;BME280;46289;51.992;4.498;2023-07-20T06:23:55;101715.00;;;19.03;77.56
60437;BME280;46289;51.992;4.498;2023-07-20T06:26:01;101719.03;;;18.51;76.73
60437;BME280;46289;51.992;4.498;2023-07-20T06:28:06;101714.91;;;18.76;76.67
60437;BME280;46289;51.992;4.498;2023-07-20T06:30:12;101721.59;;;18.53;76.57
60437;BME280;46289;51.992;4.498;2023-07-20T06:32:18;101721.25;;;18.29;76.90
60437;BME280;46289;51.992;4.498;2023-07-20T06:34:25;101719.19;;;18.93;75.75
60437;BME280;46289;51.992;4.498;2023-07-20T06:36:31;101718.00;;;19.54;71.50
60437;BME280;46289;51.992;4.498;2023-07-20T06:38:37;101719.13;;;20.18;71.05
60437;BME280;46289;51.992;4.498;2023-07-20T06:40:43;101727.09;;;20.06;68.01
60437;BME280;46289;51.992;4.498;2023-07-20T06:42:48;101716.06;;;20.37;70.29
60437;BME280;46289;51.992;4.498;2023-07-20T06:44:57;101720.69;;;20.48;70.38
60437;BME280;46289;51.992;4.498;2023-07-20T06:47:08;101718.91;;;20.74;68.25
60437;BME280;46289;51.992;4.498;2023-07-20T06:49:26;101720.97;;;20.71;67.01
60437;BME280;46289;51.992;4.498;2023-07-20T06:51:32;101717.13;;;20.75;66.15
60437;BME280;46289;51.992;4.498;2023-07-20T06:53:37;101714.94;;;21.05;64.57
60437;BME280;46289;51.992;4.498;2023-07-20T06:55:45;101723.63;;;21.09;65.87
60437;BME280;46289;51.992;4.498;2023-07-20T06:57:50;101730.13;;;21.18;64.37
60437;BME280;46289;51.992;4.498;2023-07-20T07:00:00;101720.09;;;20.70;64.10
60437;BME280;46289;51.992;4.498;2023-07-20T07:02:06;101723.38;;;21.25;64.71
60437;BME280;46289;51.992;4.498;2023-07-20T07:04:14;101728.69;;;21.51;62.91
60437;BME280;46289;51.992;4.498;2023-07-20T07:06:22;101719.72;;;21.52;60.88
60437;BME280;46289;51.992;4.498;2023-07-20T07:08:30;101724.56;;;21.46;60.17
60437;BME280;46289;51.992;4.498;2023-07-20T07:10:36;101722.91;;;21.57;60.65
60437;BME280;46289;51.992;4.498;2023-07-20T07:12:41;101726.13;;;21.62;58.87
60437;BME280;46289;51.992;4.498;2023-07-20T07:14:46;101723.28;;;21.14;60.96
60437;BME280;46289;51.992;4.498;2023-07-20T07:16:52;101723.16;;;22.02;60.57
60437;BME280;46289;51.992;4.498;2023-07-20T07:19:08;101727.88;;;21.98;60.00
60437;BME280;46289;51.992;4.498;2023-07-20T07:21:13;101720.19;;;22.18;59.21
60437;BME280;46289;51.992;4.498;2023-07-20T07:23:21;101718.34;;;22.18;58.08
60437;BME280;46289;51.992;4.498;2023-07-20T07:25:27;101727.44;;;21.80;57.38
60437;BME280;46289;51.992;4.498;2023-07-20T07:27:33;101719.34;;;22.17;57.81
60437;BME280;46289;51.992;4.498;2023-07-20T07:29:39;101724.34;;;21.98;56.34
60437;BME280;46289;51.992;4.498;2023-07-20T07:31:46;101727.75;;;22.00;56.77
60437;BME280;46289;51.992;4.498;2023-07-20T07:33:54;101725.53;;;22.42;56.39
60437;BME280;46289;51.992;4.498;2023-07-20T07:36:03;101722.44;;;22.35;54.96
60437;BME280;46289;51.992;4.498;2023-07-20T07:38:08;101723.94;;;22.39;55.54
60437;BME280;46289;51.992;4.498;2023-07-20T07:40:36;101724.06;;;21.89;56.59
60437;BME280;46289;51.992;4.498;2023-07-20T07:42:41;101728.03;;;21.60;57.45
60437;BME280;46289;51.992;4.498;2023-07-20T07:44:46;101729.81;;;21.10;59.37
60437;BME280;46289;51.992;4.498;2023-07-20T07:46:52;101732.28;;;20.74;61.27
60437;BME280;46289;51.992;4.498;2023-07-20T07:48:57;101734.09;;;20.87;60.09
60437;BME280;46289;51.992;4.498;2023-07-20T07:51:08;101736.97;;;20.71;59.98
60437;BME280;46289;51.992;4.498;2023-07-20T07:53:13;101733.47;;;20.70;60.02
60437;BME280;46289;51.992;4.498;2023-07-20T07:55:18;101733.88;;;20.77;61.27
60437;BME280;46289;51.992;4.498;2023-07-20T07:57:26;101729.16;;;20.55;62.41
60437;BME280;46289;51.992;4.498;2023-07-20T07:59:31;101730.91;;;21.07;60.75
60437;BME280;46289;51.992;4.498;2023-07-20T08:01:39;101732.13;;;21.77;57.63
60437;BME280;46289;51.992;4.498;2023-07-20T08:03:45;101729.38;;;22.38;55.77
60437;BME280;46289;51.992;4.498;2023-07-20T08:05:53;101725.25;;;22.91;55.29
60437;BME280;46289;51.992;4.498;2023-07-20T08:08:01;101729.56;;;23.28;53.95
60437;BME280;46289;51.992;4.498;2023-07-20T08:10:07;101733.69;;;23.20;53.21
60437;BME280;46289;51.992;4.498;2023-07-20T08:12:13;101732.41;;;22.09;55.09
60437;BME280;46289;51.992;4.498;2023-07-20T08:14:23;101732.19;;;21.64;57.01
60437;BME280;46289;51.992;4.498;2023-07-20T08:16:29;101739.91;;;20.53;58.86
60437;BME280;46289;51.992;4.498;2023-07-20T08:18:35;101737.66;;;20.34;61.32
60437;BME280;46289;51.992;4.498;2023-07-20T08:20:43;101744.19;;;19.47;62.13
60437;BME280;46289;51.992;4.498;2023-07-20T08:22:48;101741.91;;;19.70;64.31
60437;BME280;46289;51.992;4.498;2023-07-20T08:24:54;101744.50;;;19.28;65.23
60437;BME280;46289;51.992;4.498;2023-07-20T08:27:00;101745.81;;;18.78;67.68
60437;BME280;46289;51.992;4.498;2023-07-20T08:29:07;101738.69;;;18.49;68.06
60437;BME280;46289;51.992;4.498;2023-07-20T08:31:16;101734.94;;;18.67;68.04
60437;BME280;46289;51.992;4.498;2023-07-20T08:33:22;101744.63;;;18.54;68.02
60437;BME280;46289;51.992;4.498;2023-07-20T08:35:31;101740.88;;;18.12;68.21
60437;BME280;46289;51.992;4.498;2023-07-20T08:37:36;101749.19;;;18.66;66.52
60437;BME280;46289;51.992;4.498;2023-07-20T08:39:39;101749.22;;;19.66;64.51
60437;BME280;46289;51.992;4.498;2023-07-20T08:41:47;101739.34;;;20.23;61.19
60437;BME280;46289;51.992;4.498;2023-07-20T08:43:54;101742.22;;;20.72;60.59
60437;BME280;46289;51.992;4.498;2023-07-20T08:46:02;101745.22;;;20.68;57.69
60437;BME280;46289;51.992;4.498;2023-07-20T08:48:11;101740.06;;;21.41;56.76
60437;BME280;46289;51.992;4.498;2023-07-20T08:50:18;101737.94;;;21.95;55.42
60437;BME280;46289;51.992;4.498;2023-07-20T08:52:27;101737.28;;;22.28;53.20
60437;BME280;46289;51.992;4.498;2023-07-20T08:54:37;101736.25;;;22.53;52.45
60437;BME280;46289;51.992;4.498;2023-07-20T08:56:45;101739.47;;;22.23;51.57
60437;BME280;46289;51.992;4.498;2023-07-20T08:58:52;101727.53;;;22.62;52.67
60437;BME280;46289;51.992;4.498;2023-07-20T09:00:59;101735.41;;;23.10;49.75
60437;BME280;46289;51.992;4.498;2023-07-20T09:03:06;101731.44;;;23.59;48.53
60437;BME280;46289;51.992;4.498;2023-07-20T09:05:14;101729.25;;;23.64;48.04
60437;BME280;46289;51.992;4.498;2023-07-20T09:07:22;101726.59;;;24.29;48.10
60437;BME280;46289;51.992;4.498;2023-07-20T09:09:27;101726.69;;;24.06;46.97
60437;BME280;46289;51.992;4.498;2023-07-20T09:11:35;101729.75;;;24.34;46.65
60437;BME280;46289;51.992;4.498;2023-07-20T09:13:40;101728.25;;;23.77;46.43
60437;BME280;46289;51.992;4.498;2023-07-20T09:15:48;101728.50;;;24.38;46.56
60437;BME280;46289;51.992;4.498;2023-07-20T09:18:01;101726.66;;;24.39;46.34
60437;BME280;46289;51.992;4.498;2023-07-20T09:20:08;101719.56;;;24.38;45.19
60437;BME280;46289;51.992;4.498;2023-07-20T09:22:16;101717.66;;;23.75;46.53
60437;BME280;46289;51.992;4.498;2023-07-20T09:24:22;101723.69;;;23.34;47.83
60437;BME280;46289;51.992;4.498;2023-07-20T09:26:27;101722.06;;;23.54;47.60
60437;BME280;46289;51.992;4.498;2023-07-20T09:28:41;101717.66;;;23.75;47.56
60437;BME280;46289;51.992;4.498;2023-07-20T09:30:48;101725.25;;;24.02;46.03
60437;BME280;46289;51.992;4.498;2023-07-20T09:32:55;101732.94;;;23.41;46.65
60437;BME280;46289;51.992;4.498;2023-07-20T09:35:01;101726.25;;;23.02;47.45
60437;BME280;46289;51.992;4.498;2023-07-20T09:37:09;101715.16;;;23.29;49.21
60437;BME280;46289;51.992;4.498;2023-07-20T09:39:17;101724.16;;;23.39;48.15
60437;BME280;46289;51.992;4.498;2023-07-20T09:41:25;101719.31;;;24.20;45.35
60437;BME280;46289;51.992;4.498;2023-07-20T09:43:34;101719.69;;;24.68;46.11
60437;BME280;46289;51.992;4.498;2023-07-20T09:45:40;101723.34;;;24.67;44.67
60437;BME280;46289;51.992;4.498;2023-07-20T09:47:48;101718.25;;;23.79;47.21
60437;BME280;46289;51.992;4.498;2023-07-20T09:50:10;101723.81;;;23.43;46.84
60437;BME280;46289;51.992;4.498;2023-07-20T09:52:19;101716.25;;;23.26;47.86
60437;BME280;46289;51.992;4.498;2023-07-20T09:54:28;101727.28;;;22.06;50.62
60437;BME280;46289;51.992;4.498;2023-07-20T09:56:35;101720.63;;;21.63;51.84
60437;BME280;46289;51.992;4.498;2023-07-20T09:58:45;101726.28;;;21.72;52.92
60437;BME280;46289;51.992;4.498;2023-07-20T10:00:51;101721.72;;;21.61;52.03
60437;BME280;46289;51.992;4.498;2023-07-20T10:03:03;101719.94;;;21.48;51.85
60437;BME280;46289;51.992;4.498;2023-07-20T10:05:11;101720.97;;;21.59;52.35
60437;BME280;46289;51.992;4.498;2023-07-20T10:07:19;101721.75;;;21.72;52.40
60437;BME280;46289;51.992;4.498;2023-07-20T10:09:30;101729.72;;;22.09;52.01
60437;BME280;46289;51.992;4.498;2023-07-20T10:11:38;101715.28;;;21.87;51.23
60437;BME280;46289;51.992;4.498;2023-07-20T10:13:46;101729.63;;;22.10;52.73
60437;BME280;46289;51.992;4.498;2023-07-20T10:16:02;101721.03;;;23.22;50.74
60437;BME280;46289;51.992;4.498;2023-07-20T10:18:11;101709.88;;;23.93;47.01
60437;BME280;46289;51.992;4.498;2023-07-20T10:20:16;101718.31;;;24.53;46.56
60437;BME280;46289;51.992;4.498;2023-07-20T10:22:25;101710.03;;;23.92;47.30
60437;BME280;46289;51.992;4.498;2023-07-20T10:24:32;101717.41;;;24.10;46.16
60437;BME280;46289;51.992;4.498;2023-07-20T10:26:39;101714.38;;;22.93;47.65
60437;BME280;46289;51.992;4.498;2023-07-20T10:28:43;101710.25;;;23.45;46.96
60437;BME280;46289;51.992;4.498;2023-07-20T10:30:49;101717.59;;;22.40;49.44
60437;BME280;46289;51.992;4.498;2023-07-20T10:32:55;101713.47;;;21.88;49.98
60437;BME280;46289;51.992;4.498;2023-07-20T10:35:00;101712.50;;;21.89;51.19
60437;BME280;46289;51.992;4.498;2023-07-20T10:37:06;101724.88;;;22.14;52.11
60437;BME280;46289;51.992;4.498;2023-07-20T10:39:22;101713.56;;;22.34;50.91
60437;BME280;46289;51.992;4.498;2023-07-20T10:41:37;101711.22;;;22.88;49.96
60437;BME280;46289;51.992;4.498;2023-07-20T10:43:47;101714.06;;;23.09;50.49
60437;BME280;46289;51.992;4.498;2023-07-20T10:45:51;101703.88;;;23.57;48.01
60437;BME280;46289;51.992;4.498;2023-07-20T10:47:56;101704.63;;;23.48;46.97
60437;BME280;46289;51.992;4.498;2023-07-20T10:50:01;101706.84;;;22.87;48.01
60437;BME280;46289;51.992;4.498;2023-07-20T10:52:10;101703.31;;;22.28;48.64
60437;BME280;46289;51.992;4.498;2023-07-20T10:54:33;101690.72;;;23.54;46.91
60437;BME280;46289;51.992;4.498;2023-07-20T10:56:44;101701.22;;;22.78;47.76
60437;BME280;46289;51.992;4.498;2023-07-20T10:58:49;101693.78;;;22.82;46.66
60437;BME280;46289;51.992;4.498;2023-07-20T11:00:58;101696.91;;;23.66;46.50